{site.name} Logo
Login | Create Account

Middleburg, FL Single Family Real Estate Listings

334 Total Real Estate Listings * Click on table heading to sort
Date Posted Property Type Property Style Address Price Living Area Lot Size Price/Sq Ft.
2015-05-28 Single Family Ranch 4391 Song Sparrow Dr Middleburg, FL 32068 $289,900 2,788 sq. ft. $104
2015-05-28 Single Family 91 Foxtail Ave Middleburg, FL 32068 $164,900 1,692 sq. ft. 49,658 sq. ft. $97
2015-05-28 Single Family 2680 Periwinkle Ave Middleburg, FL 32068 $169,900 1,583 sq. ft. $107
2015-05-27 Single Family Ranch 4668 Discovery Dr Middleburg, FL 32068 $99,900 1,960 sq. ft. $51
2015-05-27 Single Family Contemporary 1981 Moorings Cir Middleburg, FL 32068 $387,000 2,904 sq. ft. 12,632 sq. ft. $133
2015-05-27 Single Family 56 Mimosa Ave Middleburg, FL 32068 $219,000 2,400 sq. ft. 104,544 sq. ft. $91
2015-05-27 Single Family 3120 Longleaf Ranch Cir Middleburg, FL 32068 $259,500 2,076 sq. ft. $125
2015-05-27 Single Family Ranch 4523 Oak Moss Loop Middleburg, FL 32068 $169,900 1,719 sq. ft. $99
2015-05-26 Single Family 1826 Lakemont Cir Middleburg, FL 32068 $91,900 1,705 sq. ft. 13,504 sq. ft. $54
2015-05-24 Single Family Ranch; Traditional 2258 Thames Ct Middleburg, FL 32068 $154,900 1,542 sq. ft. $100
2015-05-23 Single Family Stilt House; Traditional 2090 Falcon Run Ln Middleburg, FL 32068 $225,000 2,973 sq. ft. 392,476 sq. ft. $76
2015-05-23 Single Family Ranch 243 Sesame St Middleburg, FL 32068 $179,900 1,856 sq. ft. 49,658 sq. ft. $97
2015-05-23 Single Family 1747 Northglen Cir Middleburg, FL 32068 $130,000 1,687 sq. ft. $77
2015-05-23 Single Family 4696 Belladonna St Middleburg, FL 32068 $27,900 1,404 sq. ft. 55,321 sq. ft. $20
2015-05-22 Single Family Traditional 1806 Lakedge Dr Middleburg, FL 32068 $589,000 4,700 sq. ft. 110,207 sq. ft. $125
2015-05-22 Single Family Traditional 1783 Hollow Glen Dr Middleburg, FL 32068 $169,000 1,988 sq. ft. $85
2015-05-22 Single Family Traditional 1790 Shannon Lake Dr Middleburg, FL 32068 $65,000 1,240 sq. ft. $52
2015-05-21 Single Family Ranch 1717 Ashwood Cir Middleburg, FL 32068 $130,000 1,414 sq. ft. $92
2015-05-21 Single Family 3539 Sandy Branch Middleburg, FL 32068 $180,000 1,835 sq. ft. $98
2015-05-21 Single Family Traditional 1755 Dartmouth Dr Middleburg, FL 32068 $139,900 1,423 sq. ft. $98
2015-05-21 Single Family Traditional 9 Bluegrass Ave Middleburg, FL 32068 $119,000 1,703 sq. ft. $70
2015-05-21 Single Family Ranch 2695 Julie Ln Middleburg, FL 32068 $60,000 1,272 sq. ft. $47
2015-05-21 Single Family 524 Jill St Middleburg, FL 32068 $84,900 2,109 sq. ft. 102,802 sq. ft. $40
2015-05-20 Single Family 2990 Black Creek Dr Middleburg, FL 32068 $219,000 1,810 sq. ft. 57,935 sq. ft. $121
2015-05-20 Single Family Traditional 4122 Great Falls Loop Middleburg, FL 32068 $205,585 2,170 sq. ft. $95
2015-05-20 Single Family Traditional 3989 Lake Crest Ter Middleburg, FL 32068 $198,000 2,190 sq. ft. $90
2015-05-20 Single Family Traditional 4130 Great Falls Loop Middleburg, FL 32068 $181,110 1,714 sq. ft. $106
2015-05-20 Single Family Traditional 4134 Great Falls Loop Middleburg, FL 32068 $185,110 1,862 sq. ft. $99
2015-05-20 Single Family Traditional 4118 Great Falls Loop Middleburg, FL 32068 $189,085 1,862 sq. ft. $102
2015-05-20 Single Family Traditional 4126 Great Falls Loop Middleburg, FL 32068 $190,585 1,862 sq. ft. $102
2015-05-20 Single Family 1994 Apopka Dr Middleburg, FL 32068 $139,900 1,458 sq. ft. $96
2015-05-19 Single Family Traditional 4114 Great Falls Loop Middleburg, FL 32068 $212,585 2,298 sq. ft. $93
2015-05-19 Single Family Traditional 1900 High Prairie Ln Middleburg, FL 32068 $229,990 2,042 sq. ft. $113
2015-05-19 Single Family Traditional 1857 High Prairie Ln Middleburg, FL 32068 $229,990 2,042 sq. ft. $113
2015-05-19 Single Family 3904 Trail Ridge Rd Middleburg, FL 32068 $265,900 2,500 sq. ft. $106
2015-05-19 Single Family Traditional 1905 High Prairie Ln Middleburg, FL 32068 $184,990 1,540 sq. ft. $120
2015-05-19 Single Family Traditional 1621 Teaberry Dr Middleburg, FL 32068 $129,900 1,241 sq. ft. $105
2015-05-19 Single Family Ranch 4759 Javeline Cir Middleburg, FL 32068 $120,000 1,240 sq. ft. 53,143 sq. ft. $97
2015-05-19 Single Family Traditional 2523 Cosmos Ave Middleburg, FL 32068 $51,500 1,807 sq. ft. $29
2015-05-18 Single Family 3927 Great Falls Loop Middleburg, FL 32068 $215,000 2,287 sq. ft. $94
2015-05-17 Single Family Ranch 1451 Coopers Hawk Way Middleburg, FL 32068 $365,900 3,197 sq. ft. $114
2015-05-16 Single Family Traditional 1889 High Prairie Ln Middleburg, FL 32068 $209,990 1,798 sq. ft. $117
2015-05-16 Single Family 3301 Wilderness Cir Middleburg, FL 32068 $129,900 2,082 sq. ft. $62
2015-05-16 Single Family 1967 Crestview Rd Middleburg, FL 32068 $81,500 1,912 sq. ft. $43
2015-05-15 Single Family 4528 Santa Clara Ave Middleburg, FL 32068 $121,000 1,316 sq. ft. $92
2015-05-15 Single Family 3477 Devilwood St Middleburg, FL 32068 $49,900 1,980 sq. ft. $25
2015-05-14 Single Family Ranch 1080 Foxmeadow Trl Middleburg, FL 32068 $279,900 1,841 sq. ft. $152
2015-05-14 Single Family Ranch 12 Coriander Ter Middleburg, FL 32068 $107,900 49,658 sq. ft.
2015-05-13 Single Family Stilt House 4088 Scenic Middleburg, FL 32068 $267,500 1,472 sq. ft. $182
2015-05-13 Single Family 3497 Whisper Creek Blvd Middleburg, FL 32068 $225,000 2,262 sq. ft. $99
2015-05-13 Single Family Traditional 1893 High Prairie Ln Middleburg, FL 32068 $209,990 1,913 sq. ft. $110
2015-05-13 Single Family Traditional 1909 High Prairie Ln Middleburg, FL 32068 $209,990 1,913 sq. ft. $110
2015-05-13 Single Family Traditional 1896 High Prairie Ln Middleburg, FL 32068 $209,990 1,913 sq. ft. $110
2015-05-13 Single Family Traditional 1915 High Prairie Ln Middleburg, FL 32068 $229,990 2,062 sq. ft. $112
2015-05-13 Single Family Traditional 1892 High Prairie Ln Middleburg, FL 32068 $229,990 2,042 sq. ft. $113
2015-05-13 Single Family 2777 Fennel Ave Middleburg, FL 32068 $195,000 1,350 sq. ft. $144
2015-05-13 Single Family 1607 Twin Oak Dr Middleburg, FL 32068 $125,000 1,290 sq. ft. $97
2015-05-12 Single Family 1216 Orchard Oriole Pl Middleburg, FL 32068 $369,900 3,310 sq. ft. $112
2015-05-12 Single Family Ranch 4215 Southern Magnolia Ln Middleburg, FL 32068 $219,500 2,320 sq. ft. $95
2015-05-12 Single Family 2005 Creekmont Dr Middleburg, FL 32068 $184,000 2,270 sq. ft. $81
2015-05-10 Single Family Ranch 3407 Wilderness Cir Middleburg, FL 32068 $159,900 1,830 sq. ft. $87
2015-05-10 Single Family Ranch 4947 Calendula Ave Middleburg, FL 32068 $119,900 1,368 sq. ft. $88
2015-05-09 Single Family 4375 Sidewinder Trl Middleburg, FL 32068 $369,000 2,628 sq. ft. 127,195 sq. ft. $140
2015-05-09 Single Family Townhouse 3127 Ravines Rd Middleburg, FL 32068 $158,900 1,694 sq. ft. $94
2015-05-09 Single Family Ranch 2433 Oleander Ave Middleburg, FL 32068 $169,900 1,880 sq. ft. $90
2015-05-09 Single Family Contemporary 4078 Sandhill Crane Ter Middleburg, FL 32068 $188,000 1,997 sq. ft. 9,148 sq. ft. $94
2015-05-09 Single Family 2423 Moon Harbor Way Middleburg, FL 32068 $199,000 1,906 sq. ft. $104
2015-05-09 Single Family Ranch 2459 Aloha Ln Middleburg, FL 32068 $140,000 1,330 sq. ft. $105
2015-05-09 Single Family Ranch 1633 Morningside Dr Middleburg, FL 32068 $90,100 1,464 sq. ft. $62
2015-05-09 Single Family Ranch 1648 Rhonda Dr Middleburg, FL 32068 $75,260 1,278 sq. ft. $59
2015-05-08 Single Family Ranch 2875 Longleaf Ranch Cir Middleburg, FL 32068 $261,500 3,000 sq. ft. $87
2015-05-08 Single Family Traditional 1603 Night Owl Trl Middleburg, FL 32068 $210,000 2,600 sq. ft. $81
2015-05-08 Single Family Ranch 1216 Camp Ridge Ln Middleburg, FL 32068 $219,990 2,089 sq. ft. 7,841 sq. ft. $105
2015-05-08 Single Family Ranch 2462 Aloha Ln Middleburg, FL 32068 $132,500 1,665 sq. ft. $80
2015-05-08 Single Family Ranch 1790 Sheraton Lakes Cir Middleburg, FL 32068 $107,060 1,510 sq. ft. $71
2015-05-07 Single Family Traditional 4097 Great Falls Loop Middleburg, FL 32068 $208,110 2,298 sq. ft. $91
2015-05-07 Single Family Traditional 4085 Great Falls Loop Middleburg, FL 32068 $174,585 1,714 sq. ft. $102
2015-05-07 Single Family Traditional 4105 Great Falls Loop Middleburg, FL 32068 $187,085 1,862 sq. ft. $100
2015-05-07 Single Family Traditional 4091 Great Falls Loop Middleburg, FL 32068 $198,585 2,170 sq. ft. $92
2015-05-06 Single Family Contemporary; Traditional 1270 Pheasant Run Trl Middleburg, FL 32068 $375,000 2,781 sq. ft. 64,904 sq. ft. $135
2015-05-06 Single Family 1350 Camp Ridge Ln Middleburg, FL 32068 $170,000 1,843 sq. ft. $92
2015-05-06 Single Family 3217 Button Wood Middleburg, FL 32068 $132,000 1,581 sq. ft. $83
2015-05-05 Single Family 2532 Crestdale Ct Middleburg, FL 32068 $224,900 2,900 sq. ft. $78
2015-05-05 Single Family Traditional 1927 Friendly Pl Middleburg, FL 32068 $165,000 1,685 sq. ft. $98
2015-05-05 Single Family Traditional 4255 Sandhill Crane Ter Middleburg, FL 32068 $173,500 1,745 sq. ft. $99
2015-05-05 Single Family 2600 Indigo Ave Middleburg, FL 32068 $159,000 1,800 sq. ft. $88
2015-05-05 Single Family 3448 Alec Dr Middleburg, FL 32068 $94,900 1,942 sq. ft. $49
2015-05-04 Single Family Traditional 4817 Creek Bluff Ln Middleburg, FL 32068 $235,000 3,500 sq. ft. $67
2015-05-04 Single Family 33 Currant Ave Middleburg, FL 32068 $134,900 1,620 sq. ft. 150,282 sq. ft. $83
2015-05-02 Single Family 2328 Halperns Middleburg, FL 32068 $234,900 2,063 sq. ft. 69,260 sq. ft. $114
2015-05-02 Single Family 1685 Sandy Hollow Middleburg, FL 32068 $109,000 1,348 sq. ft. $81
2015-05-02 Single Family Traditional 1818 Sherwood Dr Middleburg, FL 32068 $71,500 1,351 sq. ft. $53
2015-05-01 Single Family Ranch; Traditional 138 Mango Middleburg, FL 32068 $89,500 1,104 sq. ft. $81
2015-05-01 Single Family Traditional 3101 Bright Leaf Ct Middleburg, FL 32068 $177,000 2,104 sq. ft. $84
2015-04-30 Single Family 3971 Chimney Swifts Ln Middleburg, FL 32068 $189,900 2,061 sq. ft. $92
2015-04-30 Single Family Ranch 1941 Apopka Dr Middleburg, FL 32068 $145,000 1,352 sq. ft. $107
2015-04-29 Single Family Traditional 1884 Paradise Moorings Blvd Middleburg, FL 32068 $365,000 2,788 sq. ft. 10,890 sq. ft. $131
2015-04-29 Single Family Traditional 2221 Alderney Ct Middleburg, FL 32068 $113,000 1,304 sq. ft. $87
2015-04-29 Single Family 5381 Pony Express Trl Middleburg, FL 32068 $139,900 1,492 sq. ft. $94
2015-04-29 Single Family Ranch 2731 Forman Cir Middleburg, FL 32068 $18,900 892 sq. ft. $21
2015-04-28 Single Family Ranch 5633 Apache Ct Middleburg, FL 32068 $240,000 1,615 sq. ft. 88,427 sq. ft. $149
2015-04-28 Single Family Ranch 4220 Saddlehorn Trl Middleburg, FL 32068 $254,900 1,963 sq. ft. 106,722 sq. ft. $130
2015-04-28 Single Family Traditional 3376 Chimney Dr Middleburg, FL 32068 $215,000 2,254 sq. ft. $95
2015-04-28 Single Family Contemporary 3003 Valkyrie Rd Middleburg, FL 32068 $134,900 1,874 sq. ft. $72
2015-04-27 Single Family Contemporary 3408 Steelgate Ct Middleburg, FL 32068 $185,000 2,128 sq. ft. $87
2015-04-27 Single Family Traditional 2863 Longleaf Ranch Cir Middleburg, FL 32068 $245,000 2,427 sq. ft. $101
2015-04-26 Single Family Ranch 2524 Moon Harbor Way Middleburg, FL 32068 $249,900 3,013 sq. ft. 12,197 sq. ft. $83
2015-04-25 Single Family Ranch 1996 Tacoma Dr Middleburg, FL 32068 $219,900 2,256 sq. ft. $97
2015-04-25 Single Family Ranch 1305 Foxmeadow Trl Middleburg, FL 32068 $168,900 1,670 sq. ft. $101
2015-04-25 Single Family 2646 Pinewood Blvd Middleburg, FL 32068 $79,900 1,104 sq. ft. $72
2015-04-24 Single Family 1305 Warbler Way Middleburg, FL 32068 $379,160 3,121 sq. ft. $121
2015-04-24 Single Family Ranch 10 Puma Ct Middleburg, FL 32068 $135,000 2,432 sq. ft. 154,638 sq. ft. $56
2015-04-23 Single Family 3103 Longleaf Ranch Cir Middleburg, FL 32068 $225,000 2,280 sq. ft. 22,259 sq. ft. $99
2015-04-23 Single Family Traditional 3038 Nautilus Rd Middleburg, FL 32068 $155,000 2,038 sq. ft. $76
2015-04-23 Single Family 1762 Joe Wilber Rd Middleburg, FL 32068 $59,900 1,760 sq. ft. $34
2015-04-22 Single Family Traditional 1892 Moorings Cir Middleburg, FL 32068 $369,000 2,649 sq. ft. $139
2015-04-22 Single Family Traditional 2046 Cornell Rd Middleburg, FL 32068 $190,000 1,394 sq. ft. $136
2015-04-21 Single Family 3604 Whisper Creek Blvd Middleburg, FL 32068 $249,900 3,901 sq. ft. $64
2015-04-21 Single Family Contemporary 3134 Steeple Pine Ct Middleburg, FL 32068 $235,990 2,003 sq. ft. 5,663 sq. ft. $118
2015-04-21 Single Family Ranch 4518 Song Sparrow Dr Middleburg, FL 32068 $184,900 1,764 sq. ft. $105
2015-04-21 Single Family 2101 Blue Knoll Middleburg, FL 32068 $117,000 1,144 sq. ft. 51,401 sq. ft. $102
2015-04-20 Single Family Traditional 4142 Scenic Dr Middleburg, FL 32068 $225,000 2,136 sq. ft. $105
2015-04-20 Single Family 1288 Lucky Ln Middleburg, FL 32068 $152,000 1,500 sq. ft. $101
2015-04-20 Single Family Traditional 4054 Trail Ridge Rd Middleburg, FL 32068 $169,900 1,771 sq. ft. $96
2015-04-19 Single Family 2082 Paloma Ct Middleburg, FL 32068 $72,000 1,512 sq. ft. $48
2015-04-18 Single Family Ranch 2076 Tickford St Middleburg, FL 32068 $137,900 1,465 sq. ft. $94
2015-04-18 Single Family Ranch 2565 Hibiscus Ave Middleburg, FL 32068 $119,000 1,352 sq. ft. $88
2015-04-18 Single Family Ranch 4024 Amanda Ln Middleburg, FL 32068 $74,900 1,216 sq. ft. $62
2015-04-16 Single Family Ranch 4116 Mustang Rd Middleburg, FL 32068 $1,600,000 2,174 sq. ft. 317,988 sq. ft. $736
2015-04-16 Single Family Traditional 4675 Armadillo St Middleburg, FL 32068 $160,000 1,768 sq. ft. $90
2015-04-16 Single Family 1415 Blue Jay Dr Middleburg, FL 32068 $60,000 1,837 sq. ft. 43,996 sq. ft. $33
2015-04-15 Single Family Ranch 4223 Southern Magnolia Ln Middleburg, FL 32068 $176,900 1,512 sq. ft. $117
2015-04-15 Single Family Ranch 2151 Minorcan St Middleburg, FL 32068 $149,900 1,548 sq. ft. $97
2015-04-15 Single Family Ranch 2720 Greenwood Ln Middleburg, FL 32068 $129,800 1,335 sq. ft. 21,780 sq. ft. $97
2015-04-15 Single Family Traditional 1204 Foxmeadow Trl Middleburg, FL 32068 $119,900 1,824 sq. ft. $66
2015-04-15 Single Family Ranch 4615 Burdock Middleburg, FL 32068 $110,500 1,176 sq. ft. $94
2015-04-15 Single Family Ranch 4010 Inglewood Rd Middleburg, FL 32068 $130,000 1,620 sq. ft. $80
2015-04-11 Single Family Contemporary 3950 Equestrian Ct Middleburg, FL 32068 $414,000 3,167 sq. ft. $131
2015-04-11 Single Family Tri-Level 1988 Cornell Rd Middleburg, FL 32068 $575,000 3,056 sq. ft. $188
2015-04-11 Single Family Tudor 3200 County Road 218 Middleburg, FL 32068 $374,000 4,890 sq. ft. 142,006 sq. ft. $76
2015-04-11 Single Family Ranch 124 Orchid Ave Middleburg, FL 32068 $157,900 1,504 sq. ft. $105
2015-04-11 Single Family Traditional 1826 Blarney Cir Middleburg, FL 32068 $75,500 1,211 sq. ft. $62
2015-04-11 Single Family 2161 Bluebill Rd Middleburg, FL 32068 $29,900 1,464 sq. ft. $20
2015-04-10 Single Family Traditional 4413 Song Sparrow Middleburg, FL 32068 $245,000 2,667 sq. ft. $92
2015-04-10 Single Family Ranch 1691 Hereford Rd Middleburg, FL 32068 $197,900 1,428 sq. ft. $139
2015-04-10 Single Family 2208 Indigo Ave Middleburg, FL 32068 $150,000 2,280 sq. ft. 50,094 sq. ft. $66
2015-04-10 Single Family Traditional 2826 Bailey Way Middleburg, FL 32068 $130,000 1,221 sq. ft. $106
2015-04-10 Single Family Ranch 5380 Laurie Ln Middleburg, FL 32068 $67,000 1,008 sq. ft. $66
2015-04-10 Single Family 4509 Calendula Middleburg, FL 32068 $29,900 1,716 sq. ft. $17
2015-04-08 Single Family 1358 King Rail Ln Middleburg, FL 32068 $215,900 2,316 sq. ft. $93
2015-04-08 Single Family 4100 Everett Ave Middleburg, FL 32068 $129,900 1,295 sq. ft. $100
2015-04-08 Single Family 3512 Devilwood St Middleburg, FL 32068 $96,900 1,942 sq. ft. $50
2015-04-07 Single Family Contemporary 4865 Creek Bluff Ln Middleburg, FL 32068 $218,000 2,547 sq. ft. $86
2015-04-07 Single Family 1883 Mackenzie Ct Middleburg, FL 32068 $59,900 1,260 sq. ft. $48
2015-04-06 Single Family Traditional 2920 Ravine Hill Middleburg, FL 32068 $177,900 1,957 sq. ft. $91
2015-04-05 Single Family Contemporary 3208 Stella Hall Rd Middleburg, FL 32068 $96,777 1,216 sq. ft. $80
2015-04-04 Single Family Ranch 1651 Night Owl Trl Middleburg, FL 32068 $165,000 2,069 sq. ft. $80
2015-04-04 Single Family 2371 Daisy St Middleburg, FL 32068 $112,500 2,280 sq. ft. $49
2015-04-03 Single Family Ranch 4051 Hall Boree Rd Middleburg, FL 32068 $228,000 1,736 sq. ft. 98,446 sq. ft. $131
2015-04-03 Single Family 1283 Highfield Middleburg, FL 32068 $217,500 2,349 sq. ft. $93
2015-04-03 Single Family Ranch 223 Brickyard Rd Middleburg, FL 32068 $219,000 2,120 sq. ft. $103
2015-04-02 Single Family 2864 Longleaf Ranch Cir Middleburg, FL 32068 $234,900 2,412 sq. ft. $97
2015-04-01 Single Family Ranch 3719 Alcove Dr Middleburg, FL 32068 $159,900 1,651 sq. ft. $97
2015-03-31 Single Family Traditional 2457 Night Light Ct Middleburg, FL 32068 $216,900 2,504 sq. ft. $87
2015-03-31 Single Family Ranch 1718 Dampier St Middleburg, FL 32068 $150,000 1,633 sq. ft. 10,890 sq. ft. $92
2015-03-31 Single Family 3403 Cutting Ct Middleburg, FL 32068 $120,000 1,329 sq. ft. $90
2015-03-30 Single Family Ranch 1646 Sugarpine Dr Middleburg, FL 32068 $145,000 1,487 sq. ft. $98
2015-03-29 Single Family Tudor 1310 Lucky Ln Middleburg, FL 32068 $1,199,940 7,379 sq. ft. $163
2015-03-29 Single Family Ranch 4168 Dowling Rd Middleburg, FL 32068 $549,850 4,294 sq. ft. $128
2015-03-29 Single Family Ranch 2425 Aloha Ln Middleburg, FL 32068 $136,000 1,459 sq. ft. $93
2015-03-28 Single Family Traditional 3923 Equestrian Middleburg, FL 32068 $499,500 3,422 sq. ft. $146
2015-03-28 Single Family Traditional 2647 Bluewave Dr Middleburg, FL 32068 $175,000 2,129 sq. ft. $82
2015-03-27 Single Family Traditional 3637 Meadowgreen Ln Middleburg, FL 32068 $247,000 2,901 sq. ft. $85
2015-03-27 Single Family Ranch 4565 Camellia St Middleburg, FL 32068 $22,800 1,404 sq. ft. $16
2015-03-26 Single Family Traditional 3966 White Pelican Way Middleburg, FL 32068 $149,000 1,891 sq. ft. $79
2015-03-24 Single Family Contemporary 1028 Cactus Cut Rd Middleburg, FL 32068 $420,000 2,989 sq. ft. $141
2015-03-24 Single Family Ranch 4744 Hedgehog St Middleburg, FL 32068 $189,900 2,017 sq. ft. $94
2015-03-23 Single Family 5181 Antler Middleburg, FL 32068 $39,900 2,280 sq. ft. $18
2015-03-22 Single Family Contemporary; Ranch; Traditional 1087 Cactus Cut Rd Middleburg, FL 32068 $199,900 1,879 sq. ft. $106
2015-03-22 Single Family 4662 Pine Lake Dr Middleburg, FL 32068 $219,900 2,606 sq. ft. $84
2015-03-21 Single Family Ranch 1873 Moorings Cir Middleburg, FL 32068 $799,700 3,500 sq. ft. 32,234 sq. ft. $228
2015-03-20 Single Family Contemporary; Ranch 3935 Equestrian Ct Middleburg, FL 32068 $279,900 2,183 sq. ft. 38,768 sq. ft. $128
2015-03-18 Single Family Traditional 1881 High Prairie Ln Middleburg, FL 32068 $249,990 2,368 sq. ft. $106
2015-03-18 Single Family Traditional 1863 High Prairie Ln Middleburg, FL 32068 $254,990 2,368 sq. ft. $108
2015-03-18 Single Family Traditional 1867 High Prairie Ln Middleburg, FL 32068 $209,990 1,847 sq. ft. $114
2015-03-18 Single Family Traditional 1901 High Prairie Ln Middleburg, FL 32068 $207,990 1,798 sq. ft. $116
2015-03-18 Single Family Townhouse 3118 Ravines Rd Middleburg, FL 32068 $184,900 2,541 sq. ft. $73
2015-03-15 Single Family Ranch 3115 Longleaf Ranch Cir Middleburg, FL 32068 $219,900 2,312 sq. ft. $95
2015-03-15 Single Family Traditional 4839 Gopher Cir Middleburg, FL 32068 $185,000 1,750 sq. ft. $106
2015-03-14 Single Family Contemporary 4320 Song Sparrow Dr Middleburg, FL 32068 $289,888 3,315 sq. ft. $87
2015-03-14 Single Family 710 Welcome Home Dr Middleburg, FL 32068 $229,500 2,499 sq. ft. $92
2015-03-14 Single Family Ranch 4061 Appaloosa Rd Middleburg, FL 32068 $199,000 1,798 sq. ft. 146,362 sq. ft. $111
2015-03-14 Single Family Ranch 3590 Southern Pines Dr Middleburg, FL 32068 $183,000 1,548 sq. ft. 87,120 sq. ft. $118
2015-03-14 Single Family Ranch 3459 Rustic Oak Trl Middleburg, FL 32068 $183,000 1,548 sq. ft. 87,120 sq. ft. $118
2015-03-12 Single Family 4070 Edgeland Trail Middleburg, FL 32068 $174,900 1,963 sq. ft. $89
2015-03-11 Single Family 2812 Diploma Ct Middleburg, FL 32068 $128,000 1,204 sq. ft. $106
2015-03-11 Single Family 2285 Wallaby Ave Middleburg, FL 32068 $29,900 1,296 sq. ft. 51,836 sq. ft. $23
2015-03-10 Single Family Ranch 3411 Talisman Dr Middleburg, FL 32068 $89,800 1,303 sq. ft. $69
2015-03-10 Single Family Traditional 3203 Nantucket Ct Middleburg, FL 32068 $275,000 2,265 sq. ft. $121
2015-03-10 Single Family Traditional 2841 Ravines Rd Middleburg, FL 32068 $269,900 2,485 sq. ft. $109
2015-03-06 Single Family Traditional 1240 Orchard Oriole Pl Middleburg, FL 32068 $358,000 3,204 sq. ft. $112
2015-03-06 Single Family 1955 Leap Frog Ln Middleburg, FL 32068 $250,000 2,593 sq. ft. $96
2015-03-05 Single Family 4442 Song Sparrow Dr Middleburg, FL 32068 $175,000 2,640 sq. ft. $66
2015-02-27 Single Family 2312 Tyrone Middleburg, FL 32068 $29,900 920 sq. ft. 60,113 sq. ft. $32
2015-02-25 Single Family Ranch 4522 Song Sparrow Dr Middleburg, FL 32068 $222,785 2,316 sq. ft. $96
2015-02-25 Single Family Ranch 1293 Wetland Ridge Cir Middleburg, FL 32068 $184,990 1,902 sq. ft. $97
2015-02-25 Single Family 2895 Woodstone Dr Middleburg, FL 32068 $169,000 1,988 sq. ft. $85
2015-02-24 Single Family Contemporary; Traditional 4315 Falcon Run Ln Middleburg, FL 32068 $550,000 2,982 sq. ft. 871,200 sq. ft. $184
2015-02-24 Single Family Traditional 3050 Longleaf Ranch Middleburg, FL 32068 $249,900 3,118 sq. ft. 14,810 sq. ft. $80
2015-02-21 Single Family Traditional 3982 Lake Crest Ter Ter Middleburg, FL 32068 $208,000 2,475 sq. ft. $84
2015-02-20 Single Family Ranch 4191 Everett Ave Middleburg, FL 32068 $594,500 2,994 sq. ft. 516,186 sq. ft. $199
2015-02-20 Single Family Traditional 3505 Steelgate Ct Middleburg, FL 32068 $174,900 1,868 sq. ft. $94
2015-02-18 Single Family Contemporary 3045 Angora Bay Dr Middleburg, FL 32068 $219,990 1,832 sq. ft. 5,663 sq. ft. $120
2015-02-18 Single Family 2296 Daisy St Middleburg, FL 32068 $125,000 1,500 sq. ft. 49,658 sq. ft. $83
2015-02-17 Single Family 2071 Falcon Run Ln Middleburg, FL 32068 $139,900 1,896 sq. ft. 270,072 sq. ft. $74
2015-02-13 Single Family Traditional 2512 Marlin Ct Middleburg, FL 32068 $474,900 2,500 sq. ft. $190
2015-02-13 Single Family Traditional 3951 White Pelican Way Middleburg, FL 32068 $199,900 2,093 sq. ft. $96
2015-02-12 Single Family Traditional 2754 Archer St Middleburg, FL 32068 $157,900 2,019 sq. ft. $78
2015-02-11 Single Family Ranch 4324 Song Sparrow Dr Middleburg, FL 32068 $285,900 3,015 sq. ft. $95
2015-02-11 Single Family Ranch 1395 King Rail Ln Middleburg, FL 32068 $225,900 2,316 sq. ft. $98
2015-02-08 Single Family 1909 Nighthawk Rd Middleburg, FL 32068 $109,500 1,890 sq. ft. $58
2015-02-07 Single Family Ranch 2974 Ravine Hill Dr Middleburg, FL 32068 $129,900 1,872 sq. ft. $69
2015-02-06 Single Family Contemporary 1981 Moorings Cir Middleburg, FL 32068 $387,000 2,904 sq. ft. 12,632 sq. ft. $133
2015-02-06 Single Family 2175 Fresco Dr Middleburg, FL 32068 $87,380 1,209 sq. ft. $72
2015-02-04 Single Family 4063 Dowling Rd Middleburg, FL 32068 $52,500 2,850 sq. ft. $18
2015-02-03 Single Family Ranch 3192 Carlotta Rd Middleburg, FL 32068 $101,310 1,632 sq. ft. $62
2015-02-03 Single Family Traditional 3955 Trail Ridge Rd Middleburg, FL 32068 $194,900 2,201 sq. ft. $89
2015-02-03 Single Family Traditional 2033 Tickford St Middleburg, FL 32068 $135,500 1,335 sq. ft. $101
2015-02-02 Single Family Contemporary 1063 Cactus Cut Rd Middleburg, FL 32068 $389,687 3,121 sq. ft. 43,996 sq. ft. $125
2015-02-01 Single Family Traditional 3749 Creek Hollow Ln Middleburg, FL 32068 $215,000 2,391 sq. ft. 22,216 sq. ft. $90
2015-01-31 Single Family Ranch 5583 Maverick Rd Middleburg, FL 32068 $89,900 1,224 sq. ft. $73
2015-01-30 Single Family 3342 New Beginnings Ln Middleburg, FL 32068 $238,995 2,499 sq. ft. $96
2015-01-30 Single Family Ranch 4162 Weathered Pine Ct Middleburg, FL 32068 $230,000 1,922 sq. ft. $120
2015-01-29 Single Family 3315 Roundabout Dr Middleburg, FL 32068 $194,995 2,001 sq. ft. $97
2015-01-28 Single Family Tri-Level 2094 Falcon Run Ln Middleburg, FL 32068 $229,900 2,322 sq. ft. 102,366 sq. ft. $99
2015-01-27 Single Family 1119 Buggy Whip Trl Middleburg, FL 32068 $315,000 2,164 sq. ft. $146
2015-01-27 Single Family Stilt House 128 Lee Dr Middleburg, FL 32068 $199,000 2,285 sq. ft. $87
2015-01-25 Single Family Ranch 2641 Pinewood Blvd Middleburg, FL 32068 $63,900 1,200 sq. ft. $53
2015-01-22 Single Family Traditional 2989 Sparkleberry Dr Middleburg, FL 32068 $250,000 3,037 sq. ft. $82
2015-01-22 Single Family 2448 Violet Way Middleburg, FL 32068 $44,900 1,728 sq. ft. $26
2015-01-21 Single Family 2457 Indigo Ave Middleburg, FL 32068 $54,000 960 sq. ft. 49,658 sq. ft. $56
2015-01-21 Single Family Traditional 2418 Violet Way Middleburg, FL 32068 $399,000 4,310 sq. ft. 70,132 sq. ft. $93
2015-01-21 Single Family Loft; Traditional; Tri-Level 2866 Black Creek Middleburg, FL 32068 $550,000 2,592 sq. ft. 43,604 sq. ft. $212
2015-01-21 Single Family 4394 Song Sparrow Dr Middleburg, FL 32068 $216,900 2,235 sq. ft. $97
2015-01-21 Single Family Townhouse 3073 Zeyno Dr Middleburg, FL 32068 $125,000 1,550 sq. ft. $81
2015-01-20 Single Family Traditional 1449 Heather Glen Ln Middleburg, FL 32068 $245,000 2,483 sq. ft. $99
2015-01-20 Single Family Traditional 1934 St George Ct Middleburg, FL 32068 $189,900 1,795 sq. ft. $106
2015-01-17 Single Family Spanish; Traditional 2347 Halperns Way Middleburg, FL 32068 $540,000 2,944 sq. ft. $183
2015-01-17 Single Family Townhouse 3140 Ravines Rd Middleburg, FL 32068 $179,900 2,321 sq. ft. $78
2015-01-16 Single Family Traditional 4479 Oak Moss Loop Middleburg, FL 32068 $178,000 1,901 sq. ft. $94
2015-01-16 Single Family Ranch 4615 Pine Lake Dr Middleburg, FL 32068 $254,950 2,470 sq. ft. $103
2015-01-16 Single Family Contemporary 1333 Camp Ridge Middleburg, FL 32068 $149,900 1,545 sq. ft. $97
2015-01-15 Single Family Traditional 2656 Halperns Way Middleburg, FL 32068 $165,000 2,777 sq. ft. $59
2015-01-14 Single Family 1107 Leigh Ln Middleburg, FL 32068 $114,900 1,540 sq. ft. $75
2015-01-04 Single Family Ranch 5243 Chicory Cir Middleburg, FL 32068 $129,900 1,048 sq. ft. 53,143 sq. ft. $124
2015-01-02 Single Family Traditional; Tri-Level 106 Panda Ave Middleburg, FL 32068 $455,000 4,143 sq. ft. 108,464 sq. ft. $110
2015-01-01 Single Family 1588 Big Branch Rd Middleburg, FL 32068 $89,900 1,728 sq. ft. $52
2014-12-31 Single Family Traditional 1427 Coopers Hawk Way Middleburg, FL 32068 $359,999 3,434 sq. ft. $105
2014-12-31 Single Family 1951 Red Bug Aly Middleburg, FL 32068 $334,900 2,975 sq. ft. 13,939 sq. ft. $113
2014-12-29 Single Family Ranch 4424 Longmire Rd Middleburg, FL 32068 $65,000 1,728 sq. ft. 43,560 sq. ft. $38
2014-12-28 Single Family Traditional 1652 Teaberry Dr Middleburg, FL 32068 $111,000 1,284 sq. ft. $86
2014-12-25 Single Family A Frame 1990 Red Bug Aly Middleburg, FL 32068 $165,000 1,987 sq. ft. $83
2014-12-23 Single Family 3833 Sand Dollar Rd Middleburg, FL 32068 $230,000 2,905 sq. ft. $79
2014-12-18 Single Family Contemporary 1903 Captiva Dr Middleburg, FL 32068 $195,000 2,268 sq. ft. 10,019 sq. ft. $86
2014-12-17 Single Family 1813 Heartpine Middleburg, FL 32068 $140,000 1,928 sq. ft. $73
2014-12-16 Single Family Ranch 543 Kay Rd Middleburg, FL 32068 $99,400 1,792 sq. ft. $55
2014-12-13 Single Family Ranch 2821 Fennel Ave Middleburg, FL 32068 $214,900 2,668 sq. ft. $81
2014-12-13 Single Family Ranch 3234 Bellows Ct Middleburg, FL 32068 $205,000 2,207 sq. ft. $93
2014-12-13 Single Family Traditional 4106 Half Moon Cir Middleburg, FL 32068 $137,000 1,887 sq. ft. $73
2014-12-09 Single Family Contemporary; Townhouse 3131 Zeyno Dr Middleburg, FL 32068 $142,900 1,810 sq. ft. $79
2014-12-09 Single Family Contemporary; Townhouse 3125 Zeyno Dr Middleburg, FL 32068 $142,900 1,810 sq. ft. $79
2014-12-09 Single Family Traditional 4800 Peppergrass St Middleburg, FL 32068 $135,000 2,113 sq. ft. $64
2014-12-09 Single Family Townhouse 3129 Zeyno Dr Middleburg, FL 32068 $130,900 1,580 sq. ft. $83
2014-12-06 Single Family Contemporary 1375 King Rail Ln Middleburg, FL 32068 $228,900 2,279 sq. ft. $100
2014-12-06 Single Family Ranch 2230 Cosmos Ave Middleburg, FL 32068 $109,900 2,280 sq. ft. $48
2014-12-06 Single Family Ranch 2477 Gladiolus Ave Middleburg, FL 32068 $34,900 1,431 sq. ft. $24
2014-11-26 Single Family Traditional 2156 Acorn Mnr Middleburg, FL 32068 $84,900 1,620 sq. ft. 13,068 sq. ft. $52
2014-11-20 Single Family Traditional 3880 Cypress Bend Ln Middleburg, FL 32068 $695,000 4,032 sq. ft. 38,681 sq. ft. $172
2014-11-20 Single Family 1070 Wetland Ridge Cir Middleburg, FL 32068 $219,950 2,150 sq. ft. $102
2014-11-12 Single Family Traditional 2879 Ravines Rd Middleburg, FL 32068 $345,000 3,607 sq. ft. $96
2014-11-11 Single Family Traditional 4080 Cap Lock Ct Middleburg, FL 32068 $399,865 3,600 sq. ft. $111
2014-11-11 Single Family Traditional 2135 Pine Tree Ln Middleburg, FL 32068 $225,000 2,568 sq. ft. $88
2014-11-09 Single Family Ranch 3092 Longleaf Ranch Cir Middleburg, FL 32068 $270,200 3,000 sq. ft. $90
2014-11-09 Single Family Ranch 3079 Longleaf Ranch Cir Middleburg, FL 32068 $221,200 2,010 sq. ft. $110
2014-11-08 Single Family Ranch 2328 Bur Oak Pl Middleburg, FL 32068 $222,300 2,330 sq. ft. $95
2014-11-08 Single Family Patio Home 4231 Southern Magnolia Ln Middleburg, FL 32068 $179,100 1,505 sq. ft. $119
2014-11-06 Single Family 4245 Lazy Acres Middleburg, FL 32068 $175,000 1,812 sq. ft. $97
2014-11-03 Single Family Contemporary 193 Teakwood Cir Middleburg, FL 32068 $114,000 1,424 sq. ft. $80
2014-10-29 Single Family Ranch 117 Melanie Ln Middleburg, FL 32068 $320,000 3,984 sq. ft. 217,800 sq. ft. $80
2014-10-28 Single Family Traditional 2155 Fresco Dr Middleburg, FL 32068 $110,000 1,643 sq. ft. $67
2014-10-24 Single Family Ranch 2974 Florence Dr Middleburg, FL 32068 $289,900 2,413 sq. ft. $120
2014-10-16 Single Family Ranch 3484 Rustic Oak Trl Middleburg, FL 32068 $239,900 2,491 sq. ft. 49,223 sq. ft. $96
2014-10-09 Single Family Contemporary 1150 Silver Spur Ct Middleburg, FL 32068 $246,500 2,371 sq. ft. 60,984 sq. ft. $104
2014-10-04 Single Family 1071 Wetland Ridge Cir Middleburg, FL 32068 $239,950 2,600 sq. ft. $92
2014-10-02 Single Family Contemporary 3001 Nautilus Rd Middleburg, FL 32068 $249,500 2,913 sq. ft. $86
2014-10-02 Single Family 1779 Big Branch Rd Middleburg, FL 32068 $79,900 1,620 sq. ft. 44,997 sq. ft. $49
2014-10-02 Single Family Ranch 5602 Maverick Rd Middleburg, FL 32068 $63,000 1,984 sq. ft. 43,560 sq. ft. $32
2014-10-01 Single Family 5239 Chicory Cir Middleburg, FL 32068 $59,900 1,248 sq. ft. 60,984 sq. ft. $48
2014-09-26 Single Family Ranch 1831 Easy St Middleburg, FL 32068 $59,000 1,568 sq. ft. $38
2014-09-25 Single Family Traditional 93 Horsetail Ave Middleburg, FL 32068 $105,000 1,512 sq. ft. $69
2014-09-20 Single Family 3508 Rustlewood Ct Middleburg, FL 32068 $325,000 3,802 sq. ft. $85
2014-09-17 Single Family 2754 Cr-220 Middleburg, FL 32068 $1,200,000 2,966 sq. ft. $405
2014-09-12 Single Family Ranch 4634 Antelope St Middleburg, FL 32068 $152,900 1,304 sq. ft. 49,658 sq. ft. $117
2014-09-09 Single Family Ranch 2910 Longleaf Ranch Cir Middleburg, FL 32068 $175,000 2,280 sq. ft. 22,216 sq. ft. $77
2014-09-07 Single Family Ranch 2208 Scarlet Oak Ct Middleburg, FL 32068 $184,900 1,755 sq. ft. $105
2014-09-06 Single Family 2479 Sunflower Ave Middleburg, FL 32068 $39,900 2,172 sq. ft. 49,484 sq. ft. $18
2014-09-05 Single Family Colonial 2160 Wharf St Middleburg, FL 32043 $150,000 2,919 sq. ft. $51
2014-09-01 Single Family Ranch 2367 Tyrone Rd Middleburg, FL 32068 $254,900 1,890 sq. ft. $135
2014-08-28 Single Family Traditional 3216 Deer Creek Dr Middleburg, FL 32068 $175,900 1,718 sq. ft. $102
2014-08-26 Single Family Traditional 3033 Angora Bay Dr Middleburg, FL 32068 $255,990 2,752 sq. ft. 5,663 sq. ft. $93
2014-08-20 Single Family 2409 Hibiscus Ave Middleburg, FL 32068 $65,000 1,120 sq. ft. $58
2014-08-14 Single Family 1857 Tillis Ln Middleburg, FL 32068 $107,900 1,200 sq. ft. 190,357 sq. ft. $90
2014-07-30 Single Family Ranch 1134 Wetland Ridge Cir Middleburg, FL 32068 $242,950 2,472 sq. ft. $98
2014-07-30 Single Family Traditional 1058 Wetland Ridge Cir Middleburg, FL 32068 $219,950 2,150 sq. ft. $102
2014-07-29 Single Family Traditional 2066 Cornell Rd Middleburg, FL 32068 $334,990 2,296 sq. ft. $146
2014-07-26 Single Family Contemporary; Ranch 3372 Chimney Middleburg, FL 32068 $199,900 2,234 sq. ft. $89
2014-07-06 Single Family 9 Foxtail Ave Middleburg, FL 32068 $68,100 1,568 sq. ft. 52,141 sq. ft. $43
2014-07-04 Single Family Ranch 4026 Clifford Ln Middleburg, FL 32068 $72,500 1,064 sq. ft. 60,984 sq. ft. $68
2014-06-30 Single Family 1262 Limpkin Ln Middleburg, FL 32068 $398,900 3,464 sq. ft. $115
2014-06-28 Single Family 5439 Chicory St Middleburg, FL 32068 $87,900 1,352 sq. ft. $65
2014-06-21 Single Family 1988 Tacoma Dr Middleburg, FL 32068 $164,900 1,406 sq. ft. $117
2014-05-17 Single Family Ranch 4657 Petunia Ave Middleburg, FL 32068 $124,900 1,272 sq. ft. 49,658 sq. ft. $98
2014-04-25 Single Family Ranch 3996 Scenic Dr Middleburg, FL 32068 $479,000 3,012 sq. ft. $159
2014-04-16 Single Family Traditional 3770 Creek Hollow Ln Middleburg, FL 32068 $238,000 2,856 sq. ft. $83
2014-04-16 Single Family Contemporary 2252 Felucca Dr Middleburg, FL 32068 $76,500 1,960 sq. ft. $39
2014-04-11 Single Family 4607 Pine Lake Dr Middleburg, FL 32068 $261,990 2,552 sq. ft. $103
2014-02-18 Single Family 1399 King Rail Ln Middleburg, FL 32068 $298,900 3,049 sq. ft. $98
2014-02-05 Single Family 1427 King Rail Ln Middleburg, FL 32068 $283,900 2,956 sq. ft. $96
2014-01-26 Single Family Ranch 1435 Lantern Light Trl Middleburg, FL 32068 $234,950 2,500 sq. ft. $94
2014-01-08 Single Family Townhouse 3101 Zeyno Dr Middleburg, FL 32068 $139,900 1,810 sq. ft. $77
2013-12-29 Single Family 3733 Main St Middleburg, FL 32068 $144,900 3,409 sq. ft. $43
2013-12-24 Single Family 1866 Shannon Lake Dr Middleburg, FL 32068 $69,000 1,065 sq. ft. $65
2013-11-19 Single Family 1783 Nolan Rd Middleburg, FL 32068 $215,000 2,798 sq. ft. 827,640 sq. ft. $77
2013-09-18 Single Family 1967 Moorings Cir Middleburg, FL 32068 $344,990 3,038 sq. ft. $114